Time;durP1;ratioP1;P1;durP2;ratioP2;P2;SDS_P1;SDS_P2;PMS_P1;PMS_P2;Temp;Humidity;BMP_temperature;BMP_pressure;BME280_temperature;BME280_humidity;BME280_pressure;Samples;Min_cycle;Max_cycle;Signal;HPM_P1;HPM_P2
2021/04/08 00:01:16;;;;;;;1.47;0.30;;;21.50;29.70;;;;;;5033801;28;20736;-59
2021/04/08 00:03:43;;;;;;;1.08;0.30;;;21.50;29.70;;;;;;5033269;28;20744;-59
2021/04/08 00:06:09;;;;;;;1.05;0.30;;;21.50;29.80;;;;;;5033688;28;20379;-59
2021/04/08 00:08:35;;;;;;;0.60;0.30;;;21.50;29.80;;;;;;5033580;28;20465;-59
2021/04/08 00:11:00;;;;;;;1.17;0.40;;;21.40;29.70;;;;;;5033536;28;20426;-59
2021/04/08 00:13:26;;;;;;;0.75;0.30;;;21.50;29.80;;;;;;5032531;28;20421;-60
2021/04/08 00:15:52;;;;;;;0.57;0.20;;;21.40;29.70;;;;;;5033507;28;20777;-59
2021/04/08 00:18:17;;;;;;;0.70;0.30;;;21.40;29.70;;;;;;5033454;28;20379;-60
2021/04/08 00:20:44;;;;;;;0.80;0.30;;;21.40;29.70;;;;;;5033380;28;20395;-59
2021/04/08 00:23:10;;;;;;;0.75;0.25;;;21.40;30.10;;;;;;5033245;28;20740;-58
2021/04/08 00:25:39;;;;;;;0.50;0.30;;;21.40;29.70;;;;;;5032965;28;20396;-58
2021/04/08 00:28:06;;;;;;;0.40;0.20;;;21.40;29.70;;;;;;5033238;28;20471;-58
2021/04/08 00:30:42;;;;;;;0.50;0.22;;;21.30;29.70;;;;;;5033166;28;20392;-59
2021/04/08 00:33:12;;;;;;;0.50;0.30;;;21.30;29.70;;;;;;5033147;28;20501;-59
2021/04/08 00:35:38;;;;;;;0.65;0.30;;;21.30;29.60;;;;;;5032955;28;20375;-59
2021/04/08 00:38:04;;;;;;;0.73;0.30;;;21.40;29.60;;;;;;5033072;28;20453;-60
2021/04/08 00:40:30;;;;;;;0.75;0.40;;;21.30;29.60;;;;;;5032913;28;20779;-59
2021/04/08 00:42:56;;;;;;;0.52;0.28;;;21.30;29.60;;;;;;5033037;28;20396;-60
2021/04/08 00:45:22;;;;;;;0.50;0.25;;;21.30;29.70;;;;;;5032490;28;20403;-62
2021/04/08 00:47:47;;;;;;;0.60;0.30;;;21.30;29.70;;;;;;5032679;28;20756;-59
2021/04/08 00:50:14;;;;;;;0.60;0.30;;;21.30;29.70;;;;;;5032808;28;20387;-59
2021/04/08 00:52:42;;;;;;;0.68;0.20;;;21.30;29.70;;;;;;5031459;28;20423;-60
2021/04/08 00:55:09;;;;;;;0.70;0.30;;;21.30;29.60;;;;;;5032825;28;20527;-60
2021/04/08 00:57:35;;;;;;;0.57;0.20;;;21.30;29.70;;;;;;5032133;28;20399;-60
2021/04/08 01:00:06;;;;;;;0.90;0.22;;;21.30;29.70;;;;;;5032547;28;20422;-59
2021/04/08 01:02:35;;;;;;;0.60;0.22;;;21.30;29.60;;;;;;5032530;28;20899;-61
2021/04/08 01:05:01;;;;;;;0.70;0.40;;;21.20;29.60;;;;;;5032461;28;20856;-59
2021/04/08 01:07:27;;;;;;;0.40;0.30;;;21.20;29.70;;;;;;5031873;28;20437;-59
2021/04/08 01:09:53;;;;;;;0.77;0.33;;;21.20;29.60;;;;;;5032427;28;20419;-59
2021/04/08 01:12:18;;;;;;;0.88;0.30;;;21.20;29.60;;;;;;5032324;28;20883;-59
2021/04/08 01:14:44;;;;;;;0.50;0.30;;;21.20;29.60;;;;;;5032282;28;20383;-59
2021/04/08 01:17:17;;;;;;;0.50;0.30;;;21.20;29.60;;;;;;5032239;28;20395;-59
2021/04/08 01:20:20;;;;;;;0.70;0.30;;;21.20;29.60;;;;;;5031828;28;20487;-60
2021/04/08 01:23:18;;;;;;;1.00;0.30;;;21.20;29.60;;;;;;5031880;28;20391;-59
2021/04/08 01:26:26;;;;;;;0.77;0.30;;;21.20;29.70;;;;;;5009982;28;20402;-59
2021/04/08 01:29:14;;;;;;;0.63;0.30;;;21.20;29.70;;;;;;5032188;28;20395;-62
2021/04/08 01:31:41;;;;;;;1.10;0.45;;;21.20;29.70;;;;;;5031569;28;20418;-59
2021/04/08 01:34:13;;;;;;;0.82;0.30;;;21.20;29.80;;;;;;5032042;28;20391;-59
2021/04/08 01:36:42;;;;;;;0.63;0.30;;;21.20;30.20;;;;;;5030809;28;20395;-60
2021/04/08 01:39:11;;;;;;;0.82;0.40;;;21.20;29.80;;;;;;5031996;28;20387;-59
2021/04/08 01:41:41;;;;;;;0.57;0.30;;;21.10;29.70;;;;;;5031405;28;20406;-59
2021/04/08 01:44:11;;;;;;;0.47;0.30;;;21.10;29.70;;;;;;5031933;28;20394;-60
2021/04/08 01:46:38;;;;;;;0.77;0.40;;;21.10;29.70;;;;;;5031735;28;20433;-59
2021/04/08 01:49:05;;;;;;;0.65;0.30;;;21.10;29.60;;;;;;5031797;28;20411;-59
2021/04/08 01:51:34;;;;;;;0.90;0.35;;;21.10;29.50;;;;;;5031125;28;20411;-59
2021/04/08 01:54:03;;;;;;;1.00;0.30;;;21.10;29.30;;;;;;5031802;28;20398;-59
2021/04/08 01:56:36;;;;;;;1.10;0.40;;;21.10;29.20;;;;;;5031589;28;20390;-58
2021/04/08 01:59:03;;;;;;;1.20;0.40;;;21.10;29.10;;;;;;5031709;28;20406;-58
2021/04/08 02:01:29;;;;;;;0.98;0.30;;;21.10;29.10;;;;;;5030132;28;20395;-59
2021/04/08 02:03:56;;;;;;;0.90;0.40;;;21.10;29.10;;;;;;5031616;28;20394;-59
2021/04/08 02:06:25;;;;;;;1.52;0.55;;;21.10;29.10;;;;;;5031653;28;20474;-59
2021/04/08 02:08:53;;;;;;;1.27;0.30;;;21.10;29.00;;;;;;5031563;28;20395;-59
2021/04/08 02:11:20;;;;;;;0.95;0.40;;;21.10;28.90;;;;;;5031402;28;20391;-59
2021/04/08 02:13:47;;;;;;;1.38;0.40;;;21.10;28.90;;;;;;5031159;28;20421;-60
2021/04/08 02:16:16;;;;;;;1.30;0.40;;;21.10;28.90;;;;;;5031397;28;20810;-59
2021/04/08 02:18:42;;;;;;;1.10;0.40;;;21.10;28.90;;;;;;5031423;28;20748;-59
2021/04/08 02:21:08;;;;;;;1.17;0.45;;;21.10;28.90;;;;;;5031460;28;20454;-59
2021/04/08 02:23:38;;;;;;;0.80;0.40;;;21.10;28.90;;;;;;5030964;28;20418;-59
2021/04/08 02:26:05;;;;;;;0.80;0.30;;;21.10;28.80;;;;;;5030268;28;20394;-59
2021/04/08 02:28:33;;;;;;;1.10;0.40;;;21.10;28.80;;;;;;5030182;28;20475;-59
2021/04/08 02:30:59;;;;;;;0.80;0.40;;;21.00;28.80;;;;;;5031354;28;20469;-59
2021/04/08 02:33:27;;;;;;;1.20;0.40;;;21.00;28.80;;;;;;5031190;28;20406;-59
2021/04/08 02:35:54;;;;;;;1.10;0.40;;;21.00;28.70;;;;;;5031163;28;20475;-59
2021/04/08 02:38:25;;;;;;;2.10;0.60;;;21.00;28.70;;;;;;5035278;28;20922;-60
2021/04/08 02:40:51;;;;;;;0.70;0.40;;;21.00;28.70;;;;;;5035265;28;20391;-59
2021/04/08 02:43:18;;;;;;;0.95;0.40;;;21.00;28.60;;;;;;5035178;28;20434;-60
2021/04/08 02:45:44;;;;;;;0.90;0.40;;;20.90;28.60;;;;;;5034532;28;20435;-61
2021/04/08 02:48:14;;;;;;;1.42;0.55;;;21.00;28.60;;;;;;5034521;28;20525;-59
2021/04/08 02:50:42;;;;;;;1.38;0.40;;;21.00;28.60;;;;;;5035157;28;20391;-59
2021/04/08 02:53:32;;;;;;;0.82;0.40;;;21.00;28.60;;;;;;5034938;28;20458;-59
2021/04/08 02:56:33;;;;;;;1.00;0.43;;;21.00;28.50;;;;;;5035071;28;20398;-59
2021/04/08 02:59:07;;;;;;;1.20;0.50;;;21.00;28.60;;;;;;5032019;28;20827;-59
2021/04/08 03:01:43;;;;;;;1.60;0.50;;;21.00;28.60;;;;;;5034739;28;20391;-60
2021/04/08 03:04:10;;;;;;;1.00;0.40;;;21.00;28.60;;;;;;5034896;28;20844;-59
2021/04/08 03:06:36;;;;;;;0.70;0.40;;;21.00;28.50;;;;;;5034864;28;20399;-59
2021/04/08 03:09:03;;;;;;;1.83;0.47;;;21.00;28.50;;;;;;5034767;28;20384;-59
2021/04/08 03:11:32;;;;;;;2.00;0.50;;;20.90;28.80;;;;;;5034314;28;20803;-58
2021/04/08 03:14:01;;;;;;;1.17;0.52;;;20.90;28.90;;;;;;5034625;28;20426;-59
2021/04/08 03:16:33;;;;;;;2.47;0.47;;;20.80;29.00;;;;;;5034524;28;20398;-59
2021/04/08 03:19:00;;;;;;;1.95;0.43;;;20.90;29.20;;;;;;5034470;28;20887;-59
2021/04/08 03:21:27;;;;;;;1.40;0.50;;;20.90;29.20;;;;;;5034452;28;20414;-59
2021/04/08 03:23:54;;;;;;;2.15;0.70;;;20.90;29.30;;;;;;5034277;28;20399;-59
2021/04/08 03:26:21;;;;;;;1.67;0.50;;;21.00;29.80;;;;;;5034424;28;20429;-59
2021/04/08 03:28:48;;;;;;;2.00;0.40;;;21.00;30.00;;;;;;5034363;28;20474;-59
2021/04/08 03:31:15;;;;;;;2.70;0.50;;;21.00;29.80;;;;;;5034205;28;20391;-59
2021/04/08 03:33:41;;;;;;;2.57;0.50;;;21.00;29.90;;;;;;5033730;28;20490;-59
2021/04/08 03:36:08;;;;;;;1.95;0.40;;;21.10;30.30;;;;;;5034174;28;20877;-59
2021/04/08 03:38:34;;;;;;;1.60;0.40;;;21.10;30.10;;;;;;5034120;28;20855;-59
2021/04/08 03:41:00;;;;;;;1.20;0.50;;;21.10;29.70;;;;;;5036598;28;20877;-60
2021/04/08 03:43:27;;;;;;;1.73;0.50;;;21.10;30.00;;;;;;5053126;28;20405;-61
2021/04/08 03:45:58;;;;;;;1.80;0.50;;;21.10;30.70;;;;;;5053109;28;20454;-59
2021/04/08 03:48:24;;;;;;;2.20;0.60;;;21.10;30.80;;;;;;5052400;28;20857;-60
2021/04/08 03:50:50;;;;;;;1.83;0.50;;;21.10;30.70;;;;;;5052875;28;20393;-59
2021/04/08 03:53:17;;;;;;;2.03;0.50;;;21.10;30.20;;;;;;5053115;28;20405;-59
2021/04/08 03:55:45;;;;;;;2.03;0.50;;;21.00;30.50;;;;;;5052743;28;20412;-59
2021/04/08 03:58:11;;;;;;;3.03;0.70;;;21.00;30.30;;;;;;5053698;28;20389;-60
2021/04/08 04:00:38;;;;;;;2.72;0.50;;;21.00;30.00;;;;;;5053849;28;20443;-59
2021/04/08 04:03:08;;;;;;;3.60;0.68;;;21.00;30.70;;;;;;5053758;28;20393;-59
2021/04/08 04:05:34;;;;;;;2.55;0.55;;;21.00;30.60;;;;;;5053439;28;20390;-59
2021/04/08 04:08:00;;;;;;;1.43;0.50;;;21.00;30.50;;;;;;5053285;28;20385;-59
2021/04/08 04:10:26;;;;;;;1.80;0.65;;;21.10;31.10;;;;;;5053411;28;20417;-60
2021/04/08 04:12:54;;;;;;;1.30;0.50;;;21.10;30.90;;;;;;5053504;28;20500;-59
2021/04/08 04:15:21;;;;;;;0.88;0.40;;;21.10;30.40;;;;;;5053318;28;20420;-59
2021/04/08 04:17:48;;;;;;;1.55;0.47;;;21.10;30.50;;;;;;5052991;28;20393;-59
2021/04/08 04:20:15;;;;;;;1.60;0.52;;;21.00;30.50;;;;;;5053282;28;20389;-59
2021/04/08 04:22:42;;;;;;;1.58;0.40;;;21.10;30.00;;;;;;5053350;28;20389;-59
2021/04/08 04:25:10;;;;;;;1.67;0.50;;;21.00;29.80;;;;;;5051949;28;20427;-60
2021/04/08 04:27:36;;;;;;;2.53;0.50;;;21.00;29.40;;;;;;5053033;28;20394;-59
2021/04/08 04:30:04;;;;;;;2.67;0.60;;;20.90;29.40;;;;;;5053235;28;20507;-59
2021/04/08 04:32:30;;;;;;;1.40;0.52;;;20.90;29.30;;;;;;5051883;28;20426;-59
2021/04/08 04:34:56;;;;;;;2.22;0.40;;;20.90;29.10;;;;;;5053084;28;20388;-59
2021/04/08 04:37:21;;;;;;;2.13;0.60;;;20.90;29.10;;;;;;5052986;28;20389;-59
2021/04/08 04:39:48;;;;;;;2.28;0.50;;;20.90;29.10;;;;;;5052514;28;20389;-59
2021/04/08 04:42:13;;;;;;;1.42;0.50;;;20.90;29.10;;;;;;5052870;28;20881;-59
2021/04/08 04:44:39;;;;;;;1.80;0.60;;;20.90;29.20;;;;;;5052773;28;20438;-59
2021/04/08 04:47:06;;;;;;;1.60;0.40;;;20.90;29.10;;;;;;5052063;28;20523;-59
2021/04/08 04:49:32;;;;;;;0.90;0.50;;;20.90;29.30;;;;;;5052739;28;20378;-59
2021/04/08 04:51:58;;;;;;;2.72;0.70;;;20.90;29.30;;;;;;5052680;28;20842;-59
2021/04/08 04:54:24;;;;;;;1.80;0.50;;;20.90;29.90;;;;;;5052599;28;20948;-59
2021/04/08 04:56:50;;;;;;;3.00;0.53;;;20.90;29.90;;;;;;5052678;28;20540;-59
2021/04/08 04:59:15;;;;;;;1.90;0.60;;;20.90;29.70;;;;;;5052535;28;20531;-59
2021/04/08 05:01:41;;;;;;;1.63;0.50;;;20.90;29.40;;;;;;5052049;28;20757;-59
2021/04/08 05:04:07;;;;;;;2.53;0.67;;;20.90;29.20;;;;;;5052428;28;20385;-59
2021/04/08 05:06:33;;;;;;;1.10;0.45;;;20.90;29.20;;;;;;5052522;28;20412;-59
2021/04/08 05:08:58;;;;;;;1.63;0.60;;;20.90;29.30;;;;;;5052221;28;20784;-59
2021/04/08 05:11:24;;;;;;;2.40;0.60;;;20.90;29.30;;;;;;5052112;28;20393;-59
2021/04/08 05:13:50;;;;;;;1.45;0.52;;;20.90;29.30;;;;;;5050501;28;20412;-59
2021/04/08 05:16:16;;;;;;;1.20;0.50;;;20.90;29.50;;;;;;5052398;28;20408;-59
2021/04/08 05:18:43;;;;;;;1.40;0.60;;;20.90;29.50;;;;;;5052271;28;20423;-59
2021/04/08 05:21:09;;;;;;;2.13;0.50;;;20.90;29.50;;;;;;5052295;28;20792;-59
2021/04/08 05:23:36;;;;;;;0.95;0.45;;;20.90;29.50;;;;;;5051948;28;20413;-59
2021/04/08 05:26:02;;;;;;;2.20;0.60;;;20.90;29.50;;;;;;5051919;28;20393;-59
2021/04/08 05:28:28;;;;;;;1.58;0.50;;;20.90;29.50;;;;;;5052034;28;20390;-59
2021/04/08 05:30:53;;;;;;;1.55;0.50;;;20.90;29.40;;;;;;5052074;28;20385;-59
2021/04/08 05:33:19;;;;;;;1.23;0.47;;;20.90;29.40;;;;;;5051904;28;20448;-59
2021/04/08 05:35:45;;;;;;;1.33;0.60;;;20.90;29.40;;;;;;5051500;28;20409;-59
2021/04/08 05:38:11;;;;;;;1.60;0.52;;;20.90;29.30;;;;;;5051890;28;20429;-59
2021/04/08 05:40:37;;;;;;;1.23;0.60;;;20.90;29.30;;;;;;5051930;28;20714;-59
2021/04/08 05:43:02;;;;;;;1.43;0.70;;;20.90;29.30;;;;;;5051950;28;20438;-60
2021/04/08 05:45:29;;;;;;;1.40;0.63;;;20.80;29.30;;;;;;5051643;28;20401;-59
2021/04/08 05:47:54;;;;;;;2.05;0.60;;;20.80;29.30;;;;;;5051302;28;20857;-59
2021/04/08 05:50:20;;;;;;;1.63;0.73;;;20.80;29.30;;;;;;5051765;28;20389;-59
2021/04/08 05:52:46;;;;;;;1.60;0.83;;;20.80;29.30;;;;;;5052023;28;20504;-59
2021/04/08 05:55:12;;;;;;;1.30;0.63;;;20.80;29.80;;;;;;5051693;28;20835;-59
2021/04/08 05:57:37;;;;;;;1.35;0.60;;;20.80;29.30;;;;;;5050173;28;20496;-59
2021/04/08 06:00:07;;;;;;;1.30;0.50;;;20.80;29.30;;;;;;5051434;28;20397;-59
2021/04/08 06:02:33;;;;;;;1.73;0.70;;;20.70;29.30;;;;;;5051659;28;20416;-59
2021/04/08 06:04:59;;;;;;;1.50;0.70;;;20.70;29.30;;;;;;5051546;28;20876;-58
2021/04/08 06:07:25;;;;;;;1.50;0.70;;;20.70;29.70;;;;;;5051506;28;20390;-59
2021/04/08 06:09:50;;;;;;;1.85;0.65;;;20.70;29.20;;;;;;5049777;28;20397;-59
2021/04/08 06:12:16;;;;;;;1.50;0.80;;;20.70;29.20;;;;;;5050985;28;20504;-59
2021/04/08 06:14:42;;;;;;;1.25;0.60;;;20.70;29.30;;;;;;5050203;28;20791;-59
2021/04/08 06:17:08;;;;;;;1.33;0.70;;;20.70;29.30;;;;;;5051371;28;20472;-59
2021/04/08 06:19:34;;;;;;;0.90;0.60;;;20.70;29.40;;;;;;5051706;28;20476;-59
2021/04/08 06:22:00;;;;;;;1.80;0.70;;;20.70;29.50;;;;;;5050938;28;20876;-59
2021/04/08 06:24:26;;;;;;;1.00;0.50;;;20.70;29.40;;;;;;5051355;28;20397;-59
2021/04/08 06:26:52;;;;;;;1.80;0.70;;;20.70;29.40;;;;;;5051414;28;20389;-58
2021/04/08 06:29:17;;;;;;;1.08;0.63;;;20.70;29.50;;;;;;5051331;28;20381;-58
2021/04/08 06:31:44;;;;;;;1.75;0.80;;;20.70;29.40;;;;;;5050823;28;20961;-59
2021/04/08 06:34:09;;;;;;;1.65;0.80;;;20.70;29.50;;;;;;5051216;28;20409;-59
2021/04/08 06:36:35;;;;;;;2.45;1.00;;;20.70;29.40;;;;;;5051291;28;20382;-59
2021/04/08 06:39:01;;;;;;;2.63;1.30;;;20.70;29.40;;;;;;5049971;28;20471;-59
2021/04/08 06:41:26;;;;;;;4.82;1.67;;;20.70;29.50;;;;;;5051049;28;20385;-59
2021/04/08 06:43:53;;;;;;;4.27;1.73;;;20.70;29.60;;;;;;5050650;28;20432;-59
2021/04/08 06:46:24;;;;;;;4.63;1.52;;;20.70;29.60;;;;;;5050807;28;20402;-59
2021/04/08 06:49:03;;;;;;;3.42;1.48;;;20.70;29.60;;;;;;5051073;28;20780;-59
2021/04/08 06:51:32;;;;;;;4.68;1.70;;;20.80;29.50;;;;;;5050993;28;20415;-59
2021/04/08 06:54:02;;;;;;;3.72;1.30;;;20.80;29.40;;;;;;5050581;28;20884;-59
2021/04/08 06:56:29;;;;;;;3.03;1.40;;;20.80;29.40;;;;;;5051057;28;20369;-59
2021/04/08 06:58:56;;;;;;;3.40;1.20;;;20.80;29.40;;;;;;5051058;28;20397;-59
2021/04/08 07:01:22;;;;;;;2.40;1.20;;;20.80;29.40;;;;;;5050914;28;20876;-59
2021/04/08 07:03:48;;;;;;;2.15;1.10;;;20.80;29.40;;;;;;5050461;28;20738;-59
2021/04/08 07:06:14;;;;;;;2.78;1.23;;;20.80;29.30;;;;;;5049581;28;20392;-59
2021/04/08 07:08:39;;;;;;;2.55;1.08;;;20.80;29.30;;;;;;5050932;28;20402;-59
2021/04/08 07:11:05;;;;;;;2.50;1.03;;;20.80;29.30;;;;;;5050798;28;20381;-59
2021/04/08 07:13:32;;;;;;;2.42;1.00;;;20.70;29.30;;;;;;5050723;28;20413;-59
2021/04/08 07:15:59;;;;;;;2.17;0.90;;;20.80;29.30;;;;;;5050308;28;20825;-59
2021/04/08 07:18:26;;;;;;;2.33;0.80;;;20.80;29.30;;;;;;5050782;28;20405;-59
2021/04/08 07:20:52;;;;;;;2.10;0.98;;;20.80;29.30;;;;;;5050785;28;20868;-59
2021/04/08 07:23:18;;;;;;;1.95;0.93;;;20.70;29.20;;;;;;5051346;28;20440;-59
2021/04/08 07:25:59;;;;;;;1.83;0.80;;;20.80;29.20;;;;;;5054396;28;20416;-59
2021/04/08 07:28:42;;;;;;;2.20;0.90;;;20.80;29.10;;;;;;5054283;28;20400;-59
2021/04/08 07:31:23;;;;;;;2.07;0.80;;;20.80;29.10;;;;;;5054247;28;20392;-59
2021/04/08 07:33:51;;;;;;;1.83;0.70;;;20.80;29.10;;;;;;5053796;28;20402;-59
2021/04/08 07:36:29;;;;;;;1.67;0.75;;;20.80;29.10;;;;;;5054259;28;20932;-59
2021/04/08 07:38:56;;;;;;;1.63;0.90;;;20.80;29.10;;;;;;5054220;28;20404;-59
2021/04/08 07:41:27;;;;;;;1.73;0.77;;;20.80;29.10;;;;;;5054035;28;20485;-58
2021/04/08 07:44:06;;;;;;;2.40;0.97;;;20.80;29.00;;;;;;5040844;28;20399;-59
2021/04/08 07:46:41;;;;;;;2.72;0.90;;;20.80;28.90;;;;;;5041871;28;20451;-59
2021/04/08 07:49:31;;;;;;;3.17;0.85;;;20.80;28.90;;;;;;5039366;28;20498;-59
2021/04/08 07:52:18;;;;;;;2.50;0.70;;;20.80;29.00;;;;;;5038551;28;20411;-59
2021/04/08 07:55:04;;;;;;;2.20;0.80;;;20.70;29.00;;;;;;5028485;28;20402;-59
2021/04/08 07:57:32;;;;;;;1.80;0.77;;;20.80;29.30;;;;;;5041452;28;20405;-59
2021/04/08 08:00:16;;;;;;;2.10;0.80;;;20.80;29.40;;;;;;5038490;28;20396;-58
2021/04/08 08:02:42;;;;;;;2.22;1.00;;;21.00;28.80;;;;;;5041948;28;20414;-59
2021/04/08 08:05:18;;;;;;;4.77;1.03;;;20.90;29.80;;;;;;5049265;28;20398;-59
2021/04/08 08:07:45;;;;;;;4.18;0.90;;;21.00;30.10;;;;;;5053609;28;20385;-59
2021/04/08 08:10:20;;;;;;;3.58;0.80;;;20.90;30.00;;;;;;5053370;28;20393;-59
2021/04/08 08:12:47;;;;;;;4.45;0.95;;;20.90;29.70;;;;;;5053266;28;20409;-59
2021/04/08 08:15:24;;;;;;;2.72;0.77;;;20.90;30.10;;;;;;5053393;28;20472;-59
2021/04/08 08:17:52;;;;;;;4.22;0.88;;;20.90;29.60;;;;;;5053030;28;20435;-59
2021/04/08 08:20:19;;;;;;;4.40;0.93;;;20.90;29.60;;;;;;5051997;28;20389;-59
2021/04/08 08:22:46;;;;;;;3.88;0.70;;;20.90;29.60;;;;;;5053285;28;20385;-59
2021/04/08 08:25:13;;;;;;;2.63;0.70;;;20.90;29.40;;;;;;5053228;28;20452;-59
2021/04/08 08:27:47;;;;;;;2.25;0.85;;;20.90;29.30;;;;;;5053289;28;20386;-59
2021/04/08 08:30:51;;;;;;;2.42;0.80;;;20.90;29.30;;;;;;5053424;28;20374;-59
2021/04/08 08:33:18;;;;;;;1.55;0.80;;;20.90;29.30;;;;;;5052953;28;20508;-59
2021/04/08 08:35:45;;;;;;;2.50;0.90;;;20.90;29.30;;;;;;5052422;28;20382;-59
2021/04/08 08:38:20;;;;;;;1.80;0.77;;;20.90;29.20;;;;;;5052571;28;20393;-59
2021/04/08 08:40:48;;;;;;;1.65;0.85;;;20.80;29.10;;;;;;5053025;28;20512;-59
2021/04/08 08:43:15;;;;;;;2.83;1.00;;;20.80;29.10;;;;;;5051521;28;20488;-59
2021/04/08 08:45:41;;;;;;;1.70;0.70;;;20.80;29.10;;;;;;5052706;28;20397;-59
2021/04/08 08:48:18;;;;;;;1.67;0.70;;;20.80;29.00;;;;;;5052043;28;20499;-60
2021/04/08 08:50:44;;;;;;;1.45;0.80;;;20.80;29.10;;;;;;5052841;28;20480;-59
2021/04/08 08:53:11;;;;;;;2.00;0.60;;;20.80;29.10;;;;;;5052621;28;20413;-59
2021/04/08 08:55:37;;;;;;;1.98;0.80;;;20.80;29.20;;;;;;5051390;28;20386;-59
2021/04/08 08:58:03;;;;;;;1.52;0.85;;;20.80;29.10;;;;;;5050983;28;21009;-59
2021/04/08 09:00:30;;;;;;;2.45;0.80;;;20.80;29.10;;;;;;5052636;28;20464;-58
2021/04/08 09:02:57;;;;;;;1.40;0.80;;;20.80;29.10;;;;;;5051467;28;20754;-59
2021/04/08 09:05:27;;;;;;;1.65;0.95;;;20.80;29.10;;;;;;5052353;28;20393;-60
2021/04/08 09:08:06;;;;;;;1.48;0.82;;;20.80;29.10;;;;;;5052012;28;20378;-59
2021/04/08 09:10:36;;;;;;;1.60;0.80;;;20.80;29.10;;;;;;5052517;28;20397;-59
2021/04/08 09:13:02;;;;;;;1.55;0.90;;;20.80;29.10;;;;;;5052239;28;20475;-59
2021/04/08 09:15:28;;;;;;;1.10;0.60;;;20.80;29.10;;;;;;5050981;28;20417;-59
2021/04/08 09:17:58;;;;;;;1.67;0.77;;;20.70;29.10;;;;;;5051871;28;20397;-59
2021/04/08 09:20:26;;;;;;;1.55;0.80;;;20.70;29.10;;;;;;5052260;28;20381;-58
2021/04/08 09:23:04;;;;;;;2.45;0.80;;;20.70;29.10;;;;;;5052146;28;20393;-58
2021/04/08 09:25:33;;;;;;;1.20;0.60;;;20.70;29.10;;;;;;5052146;28;20382;-58
2021/04/08 09:28:08;;;;;;;1.02;0.70;;;20.80;29.10;;;;;;5051811;28;20436;-58
2021/04/08 09:31:03;;;;;;;1.92;1.00;;;20.80;29.10;;;;;;5052142;28;20857;-58
2021/04/08 09:33:40;;;;;;;1.42;0.80;;;20.70;29.00;;;;;;5051793;28;20808;-58
2021/04/08 09:36:18;;;;;;;1.23;0.75;;;20.70;29.10;;;;;;5051418;28;20389;-59
2021/04/08 09:38:44;;;;;;;1.13;0.70;;;20.70;29.10;;;;;;5051989;28;20391;-59
2021/04/08 09:41:10;;;;;;;1.50;0.88;;;20.70;29.10;;;;;;5051792;28;20392;-59
2021/04/08 09:43:37;;;;;;;1.33;0.77;;;20.70;29.10;;;;;;5051850;28;20799;-59
2021/04/08 09:46:08;;;;;;;1.50;0.70;;;20.70;29.10;;;;;;5050619;28;20401;-59
2021/04/08 09:48:47;;;;;;;1.52;0.70;;;20.70;29.10;;;;;;5051913;28;20476;-59
2021/04/08 09:51:30;;;;;;;1.45;0.93;;;20.80;29.10;;;;;;5051611;28;20472;-59
2021/04/08 09:54:05;;;;;;;1.40;0.98;;;20.70;29.00;;;;;;5051338;28;20408;-59
2021/04/08 09:56:42;;;;;;;1.40;0.70;;;20.70;29.00;;;;;;5051691;28;20378;-59
2021/04/08 09:59:08;;;;;;;1.20;0.70;;;20.80;29.00;;;;;;5051658;28;20877;-59
2021/04/08 10:01:34;;;;;;;1.33;0.70;;;20.70;29.00;;;;;;5051561;28;20390;-59
2021/04/08 10:04:10;;;;;;;1.07;0.70;;;20.70;29.10;;;;;;5051224;28;20390;-59
2021/04/08 10:06:35;;;;;;;1.90;0.80;;;20.70;29.10;;;;;;5051593;28;20381;-59
2021/04/08 10:09:09;;;;;;;1.33;0.80;;;20.70;29.20;;;;;;5051576;28;20771;-59
2021/04/08 10:11:35;;;;;;;1.40;0.80;;;20.70;29.20;;;;;;5051290;28;20737;-59
2021/04/08 10:14:21;;;;;;;1.52;0.90;;;20.60;29.20;;;;;;5050952;28;20397;-59
2021/04/08 10:17:10;;;;;;;1.40;1.00;;;20.50;29.30;;;;;;5051465;28;20857;-59
2021/04/08 10:19:41;;;;;;;1.40;0.93;;;20.40;29.50;;;;;;5050115;28;20398;-60
2021/04/08 10:22:09;;;;;;;1.23;0.80;;;20.40;29.50;;;;;;5050807;28;20460;-59
2021/04/08 10:24:44;;;;;;;1.52;0.95;;;20.40;29.40;;;;;;5050124;28;20396;-58
2021/04/08 10:27:14;;;;;;;1.60;1.00;;;20.30;29.50;;;;;;5051456;28;20476;-58
2021/04/08 10:29:39;;;;;;;1.13;0.80;;;20.40;29.50;;;;;;5050167;28;20917;-58
2021/04/08 10:32:05;;;;;;;1.70;1.00;;;20.40;29.40;;;;;;5050816;28;20405;-59
2021/04/08 10:34:39;;;;;;;2.08;1.00;;;20.50;29.40;;;;;;5051240;28;20466;-59
2021/04/08 10:37:05;;;;;;;1.40;0.80;;;20.60;29.30;;;;;;5051171;28;20778;-58
2021/04/08 10:39:36;;;;;;;1.60;0.93;;;20.50;29.20;;;;;;5051218;28;20385;-56
2021/04/08 10:42:13;;;;;;;1.88;1.15;;;20.60;29.20;;;;;;5050700;28;20378;-56
2021/04/08 10:44:44;;;;;;;1.45;0.90;;;20.60;29.20;;;;;;5050879;28;20396;-56
2021/04/08 10:47:21;;;;;;;1.60;1.00;;;20.60;29.20;;;;;;5051100;28;20397;-56
2021/04/08 10:49:58;;;;;;;1.92;1.00;;;20.70;29.60;;;;;;5049798;28;20393;-56
2021/04/08 10:52:31;;;;;;;1.30;0.80;;;20.70;29.10;;;;;;5050870;28;20408;-56
2021/04/08 10:55:08;;;;;;;1.35;0.90;;;20.70;29.00;;;;;;5050926;28;20389;-56
2021/04/08 10:57:35;;;;;;;1.83;1.10;;;20.70;29.00;;;;;;5052212;28;20413;-56
2021/04/08 11:00:03;;;;;;;2.00;1.10;;;20.70;29.00;;;;;;5054400;28;20988;-56
2021/04/08 11:02:30;;;;;;;1.70;1.10;;;20.70;29.00;;;;;;5054742;28;20396;-56
2021/04/08 11:04:58;;;;;;;1.80;1.10;;;20.70;29.00;;;;;;5054794;28;20412;-56
2021/04/08 11:07:25;;;;;;;1.77;1.00;;;20.70;29.00;;;;;;5054683;28;20877;-56
2021/04/08 11:09:52;;;;;;;1.60;1.10;;;20.70;29.00;;;;;;5054466;28;20400;-56
2021/04/08 11:12:24;;;;;;;1.90;1.10;;;20.70;29.00;;;;;;5054295;28;20417;-57
2021/04/08 11:14:55;;;;;;;1.70;1.20;;;20.70;28.90;;;;;;5054622;28;20377;-58
2021/04/08 11:17:23;;;;;;;3.58;1.30;;;20.70;29.00;;;;;;5054543;28;20401;-56
2021/04/08 11:19:52;;;;;;;1.50;1.08;;;20.70;28.90;;;;;;5054531;28;20401;-56
2021/04/08 11:22:30;;;;;;;2.25;1.30;;;20.70;28.90;;;;;;5054145;28;20470;-56
2021/04/08 11:24:57;;;;;;;2.05;1.13;;;20.80;29.00;;;;;;5054411;28;20897;-57
2021/04/08 11:27:37;;;;;;;2.08;1.50;;;20.80;29.00;;;;;;5054264;28;20405;-57
2021/04/08 11:30:04;;;;;;;2.22;1.30;;;20.80;29.00;;;;;;5053753;28;20893;-59
2021/04/08 11:32:30;;;;;;;2.00;1.27;;;20.80;29.00;;;;;;5054146;28;20459;-56
2021/04/08 11:34:58;;;;;;;2.07;1.50;;;20.80;28.90;;;;;;5052952;28;20886;-56
2021/04/08 11:37:34;;;;;;;2.30;1.25;;;20.80;28.90;;;;;;5054145;28;20404;-56
2021/04/08 11:40:01;;;;;;;2.30;1.50;;;20.80;28.90;;;;;;5053811;28;20390;-56
2021/04/08 11:42:33;;;;;;;2.40;1.30;;;20.90;28.90;;;;;;5053953;28;20394;-57
2021/04/08 11:45:18;;;;;;;1.88;1.30;;;20.80;28.90;;;;;;5053894;28;20455;-56
2021/04/08 11:48:04;;;;;;;1.63;1.20;;;20.90;28.90;;;;;;5054106;28;20393;-56
2021/04/08 11:50:31;;;;;;;2.30;1.30;;;20.90;28.90;;;;;;5053950;28;20373;-56
2021/04/08 11:53:02;;;;;;;1.60;1.20;;;20.80;28.90;;;;;;5053854;28;20413;-56
2021/04/08 11:55:41;;;;;;;1.80;1.23;;;20.80;28.90;;;;;;5053828;28;20877;-56
2021/04/08 11:58:09;;;;;;;1.98;1.27;;;20.80;28.90;;;;;;5053408;28;20390;-56
2021/04/08 12:00:36;;;;;;;2.10;1.20;;;20.80;29.00;;;;;;5053638;28;20394;-56
2021/04/08 12:03:26;;;;;;;2.20;1.35;;;20.80;29.00;;;;;;5054026;28;20487;-56
2021/04/08 12:05:52;;;;;;;2.38;1.27;;;20.80;28.90;;;;;;5053660;28;20420;-56
2021/04/08 12:08:39;;;;;;;2.10;1.20;;;20.80;29.00;;;;;;5053140;28;20385;-56
2021/04/08 12:11:05;;;;;;;2.22;1.30;;;20.80;28.90;;;;;;5053220;28;20432;-56
2021/04/08 12:13:31;;;;;;;1.83;1.13;;;20.80;29.00;;;;;;5053524;28;20414;-56
2021/04/08 12:15:57;;;;;;;2.10;1.20;;;20.80;28.90;;;;;;5053121;28;20397;-57
2021/04/08 12:18:28;;;;;;;1.42;1.00;;;20.80;29.00;;;;;;5053083;28;20493;-56
2021/04/08 12:20:56;;;;;;;1.67;1.27;;;20.80;29.00;;;;;;5053281;28;20784;-56
2021/04/08 12:23:24;;;;;;;1.80;1.10;;;20.80;28.90;;;;;;5053293;28;20393;-56
2021/04/08 12:25:52;;;;;;;2.17;1.25;;;20.80;28.90;;;;;;5053342;28;20378;-56
2021/04/08 12:28:20;;;;;;;1.75;1.13;;;20.80;29.00;;;;;;5052714;28;20390;-56
2021/04/08 12:30:47;;;;;;;1.70;1.27;;;20.90;28.90;;;;;;5053111;28;20381;-56
2021/04/08 12:33:17;;;;;;;1.52;1.10;;;20.90;28.90;;;;;;5053254;28;20421;-56
2021/04/08 12:35:46;;;;;;;2.33;1.00;;;20.90;28.90;;;;;;5053187;28;20416;-57
2021/04/08 12:38:13;;;;;;;1.60;1.02;;;20.90;28.90;;;;;;5052479;28;20381;-56
2021/04/08 12:40:39;;;;;;;1.70;1.05;;;20.90;28.90;;;;;;5052014;28;20480;-56
2021/04/08 12:43:05;;;;;;;1.80;1.17;;;20.90;28.90;;;;;;5052776;28;20532;-56
2021/04/08 12:45:31;;;;;;;1.50;1.00;;;20.90;28.90;;;;;;5052705;28;20894;-56
2021/04/08 12:47:57;;;;;;;2.08;1.13;;;21.00;28.90;;;;;;5052579;28;20401;-56
2021/04/08 12:50:23;;;;;;;4.27;2.10;;;21.00;28.80;;;;;;5052488;28;20392;-56
2021/04/08 12:52:48;;;;;;;5.88;2.45;;;21.00;28.80;;;;;;5052688;28;20524;-56
2021/04/08 12:55:15;;;;;;;4.47;2.20;;;20.90;28.80;;;;;;5052508;28;20386;-56
2021/04/08 12:57:41;;;;;;;5.03;2.25;;;20.90;28.90;;;;;;5052412;28;20667;-57
2021/04/08 13:00:07;;;;;;;4.75;2.20;;;20.80;29.00;;;;;;5051764;28;20384;-57